Time;durP1;ratioP1;P1;durP2;ratioP2;P2;SDS_P1;SDS_P2;PMS_P1;PMS_P2;Temp;Humidity;BMP_temperature;BMP_pressure;BME280_temperature;BME280_humidity;BME280_pressure;Samples;Min_cycle;Max_cycle;Signal;HPM_P1;HPM_P2
2023/08/05 00:02:03;;;;;;;;;7.67;7.67;;;;;16.10;100.00;101753.03;5078960;27;45335;-74
2023/08/05 00:04:28;;;;;;;;;8.67;8.67;;;;;16.08;100.00;101762.94;5086176;27;45380;-73
2023/08/05 00:06:54;;;;;;;;;9.00;8.67;;;;;16.08;100.00;101759.41;5068160;28;45310;-74
2023/08/05 00:09:19;;;;;;;;;7.00;7.00;;;;;16.07;100.00;101763.00;5062150;28;50841;-74
2023/08/05 00:11:44;;;;;;;;;9.33;6.33;;;;;16.05;100.00;101752.44;5080630;27;45368;-73
2023/08/05 00:14:10;;;;;;;;;10.67;9.00;;;;;15.94;100.00;101748.63;5081430;27;45368;-74
2023/08/05 00:16:35;;;;;;;;;8.00;8.00;;;;;16.01;100.00;101769.56;5086837;27;45427;-73
2023/08/05 00:19:00;;;;;;;;;8.33;7.33;;;;;15.86;100.00;101738.38;5092857;27;45389;-73
2023/08/05 00:21:25;;;;;;;;;9.00;7.00;;;;;15.96;100.00;101750.28;5092262;27;45390;-73
2023/08/05 00:23:51;;;;;;;;;9.67;9.33;;;;;15.94;100.00;101754.81;5084234;27;45679;-73
2023/08/05 00:26:16;;;;;;;;;8.00;8.00;;;;;15.87;100.00;101742.75;5082119;27;45446;-73
2023/08/05 00:28:42;;;;;;;;;10.00;8.00;;;;;15.76;100.00;101741.63;5100958;27;45448;-73
2023/08/05 00:31:08;;;;;;;;;6.67;6.67;;;;;15.81;100.00;101752.91;5095929;27;45472;-73
2023/08/05 00:33:34;;;;;;;;;6.67;6.67;;;;;15.75;100.00;101745.22;5093560;27;45292;-73
2023/08/05 00:35:59;;;;;;;;;6.67;6.67;;;;;15.71;100.00;101741.00;5092664;27;48400;-73
2023/08/05 00:38:24;;;;;;;;;9.67;9.00;;;;;15.71;100.00;101735.66;5067498;27;45501;-73
2023/08/05 00:40:50;;;;;;;;;8.00;7.33;;;;;15.71;100.00;101723.19;5093916;27;50003;-73
2023/08/05 00:43:15;;;;;;;;;6.33;6.33;;;;;15.63;100.00;101715.63;5081404;27;45528;-73
2023/08/05 00:45:40;;;;;;;;;9.67;8.00;;;;;15.64;100.00;101716.44;5082613;27;45508;-73
2023/08/05 00:48:06;;;;;;;;;8.00;8.00;;;;;15.61;100.00;101700.63;5083751;27;45420;-73
2023/08/05 00:50:33;;;;;;;;;7.33;7.33;;;;;15.47;100.00;101687.16;5073456;27;45233;-73
2023/08/05 00:53:00;;;;;;;;;9.00;7.67;;;;;15.47;100.00;101698.69;5077493;27;45518;-73
2023/08/05 00:55:28;;;;;;;;;8.67;7.67;;;;;15.50;100.00;101716.34;5093234;27;45229;-73
2023/08/05 00:57:53;;;;;;;;;8.00;7.67;;;;;15.46;100.00;101720.94;5071817;27;45409;-73
2023/08/05 01:00:18;;;;;;;;;9.00;7.00;;;;;15.45;100.00;101732.53;5084842;27;45268;-73
2023/08/05 01:02:44;;;;;;;;;8.00;8.00;;;;;15.29;100.00;101706.75;5087759;27;45475;-73
2023/08/05 01:05:09;;;;;;;;;7.33;7.33;;;;;15.30;100.00;101725.34;5098545;27;45557;-73
2023/08/05 01:07:36;;;;;;;;;8.00;8.00;;;;;15.41;100.00;101749.63;5086332;27;45400;-73
2023/08/05 01:10:02;;;;;;;;;7.67;7.67;;;;;15.42;100.00;101743.38;5098673;27;45492;-73
2023/08/05 01:12:27;;;;;;;;;10.67;9.00;;;;;15.44;100.00;101752.16;5064447;27;45375;-73
2023/08/05 01:14:52;;;;;;;;;6.67;6.67;;;;;15.36;100.00;101724.16;5079118;28;52066;-73
2023/08/05 01:17:18;;;;;;;;;6.00;6.00;;;;;15.40;100.00;101731.06;5061024;28;45439;-73
2023/08/05 01:19:45;;;;;;;;;8.33;8.33;;;;;15.33;100.00;101716.34;5079210;27;45553;-73
2023/08/05 01:22:39;;;;;;;;;8.00;8.00;;;;;15.35;100.00;101719.78;5081345;27;45401;-73
2023/08/05 01:25:23;;;;;;;;;7.00;6.00;;;;;15.35;100.00;101709.97;5084254;27;45265;-73
2023/08/05 01:27:50;;;;;;;;;7.33;6.67;;;;;15.28;100.00;101694.41;5076900;27;45382;-73
2023/08/05 01:30:16;;;;;;;;;6.33;6.33;;;;;15.34;100.00;101712.75;5098563;27;45336;-73
2023/08/05 01:32:42;;;;;;;;;9.00;9.00;;;;;15.33;100.00;101711.88;5073242;28;45533;-74
2023/08/05 01:35:09;;;;;;;;;6.67;6.67;;;;;15.34;100.00;101712.75;5079802;27;47416;-73
2023/08/05 01:37:35;;;;;;;;;7.00;7.00;;;;;15.31;100.00;101718.22;5084264;27;45308;-73
2023/08/05 01:40:00;;;;;;;;;8.33;8.00;;;;;15.32;100.00;101718.13;5078124;28;45437;-73
2023/08/05 01:42:25;;;;;;;;;8.00;8.00;;;;;15.23;100.00;101701.75;5078607;27;45431;-73
2023/08/05 01:44:51;;;;;;;;;2.67;2.00;;;;;15.29;100.00;101717.44;5072634;27;46910;-74
2023/08/05 01:47:16;;;;;;;;;7.67;6.33;;;;;15.33;100.00;101719.88;5082331;27;48899;-73
2023/08/05 01:49:41;;;;;;;;;7.67;6.67;;;;;15.25;100.00;101715.88;5069947;27;45593;-73
2023/08/05 01:52:07;;;;;;;;;7.33;7.33;;;;;15.21;100.00;101720.50;5078890;27;45462;-74
2023/08/05 01:54:32;;;;;;;;;5.67;5.67;;;;;15.32;100.00;101762.56;5060941;27;52454;-73
2023/08/05 01:56:57;;;;;;;;;7.67;7.67;;;;;15.22;100.00;101753.31;5079209;28;45404;-74
2023/08/05 01:59:23;;;;;;;;;6.00;6.00;;;;;15.27;100.00;101760.16;5081437;27;45220;-73
2023/08/05 02:01:48;;;;;;;;;7.33;7.00;;;;;15.35;100.00;101768.63;5091481;27;45217;-73
2023/08/05 02:04:14;;;;;;;;;7.00;6.67;;;;;15.36;100.00;101758.81;5095828;27;46328;-73
2023/08/05 02:06:40;;;;;;;;;8.33;7.00;;;;;15.33;100.00;101743.84;5069666;28;47089;-74
2023/08/05 02:09:06;;;;;;;;;8.00;6.00;;;;;15.36;100.00;101734.81;5078938;27;45499;-73
2023/08/05 02:11:32;;;;;;;;;6.00;6.00;;;;;15.35;100.00;101725.97;5074222;28;45597;-73
2023/08/05 02:13:57;;;;;;;;;7.67;5.33;;;;;15.32;100.00;101698.59;5077326;28;47394;-73
2023/08/05 02:16:23;;;;;;;;;5.00;5.00;;;;;15.33;100.00;101687.88;5080239;27;45411;-73
2023/08/05 02:18:52;;;;;;;;;6.00;6.00;;;;;15.38;100.00;101688.47;5083570;27;45415;-74
2023/08/05 02:21:17;;;;;;;;;6.33;5.67;;;;;15.42;100.00;101694.53;5088960;27;45540;-73
2023/08/05 02:23:43;;;;;;;;;6.33;5.00;;;;;15.39;100.00;101673.34;5083246;27;45528;-74
2023/08/05 02:26:08;;;;;;;;;4.67;4.67;;;;;15.46;100.00;101666.75;5081685;27;45312;-73
2023/08/05 02:28:34;;;;;;;;;8.33;8.33;;;;;15.50;100.00;101665.69;5083152;27;44712;-74
2023/08/05 02:30:59;;;;;;;;;4.33;4.33;;;;;15.53;100.00;101662.84;5064534;28;45394;-73
2023/08/05 02:33:24;;;;;;;;;9.00;6.00;;;;;15.55;100.00;101663.63;5066206;27;47874;-73
2023/08/05 02:35:56;;;;;;;;;10.67;5.00;;;;;15.53;100.00;101650.41;5089575;27;45371;-73
2023/08/05 02:38:21;;;;;;;;;4.67;4.00;;;;;15.54;100.00;101638.75;5086905;27;45525;-73
2023/08/05 02:40:47;;;;;;;;;5.00;5.00;;;;;15.50;100.00;101633.69;5080829;27;45442;-73
2023/08/05 02:43:12;;;;;;;;;6.00;4.67;;;;;15.47;100.00;101617.84;5064652;27;46238;-73
2023/08/05 02:45:37;;;;;;;;;7.00;6.00;;;;;15.50;100.00;101631.03;5089328;27;45270;-73
2023/08/05 02:48:03;;;;;;;;;6.00;6.00;;;;;15.49;100.00;101634.63;5077819;27;45508;-73
2023/08/05 02:50:28;;;;;;;;;8.67;7.67;;;;;15.44;100.00;101626.88;5094359;27;45419;-73
2023/08/05 02:52:53;;;;;;;;;6.00;6.00;;;;;15.39;100.00;101620.03;5093534;27;46428;-73
2023/08/05 02:55:19;;;;;;;;;5.00;3.33;;;;;15.40;100.00;101622.63;5090153;27;51833;-73
2023/08/05 02:57:44;;;;;;;;;5.33;5.33;;;;;15.27;100.00;101615.38;5080242;27;45340;-73
2023/08/05 03:00:10;;;;;;;;;7.33;7.00;;;;;15.33;100.00;101634.56;5082422;27;45557;-74
2023/08/05 03:02:35;;;;;;;;;6.33;6.33;;;;;15.17;100.00;101609.69;5065378;27;47889;-73
2023/08/05 03:05:00;;;;;;;;;7.67;6.67;;;;;15.26;100.00;101635.84;5100291;27;45394;-74
2023/08/05 03:07:26;;;;;;;;;5.67;4.67;;;;;15.27;100.00;101636.69;5092880;27;45603;-74
2023/08/05 03:09:51;;;;;;;;;6.67;6.00;;;;;15.17;100.00;101625.66;5085046;27;45643;-74
2023/08/05 03:12:17;;;;;;;;;8.33;8.33;;;;;15.20;100.00;101619.31;5070543;28;55530;-74
2023/08/05 03:14:42;;;;;;;;;9.67;8.00;;;;;15.25;100.00;101630.59;5062929;28;45292;-75
2023/08/05 03:17:07;;;;;;;;;8.67;7.00;;;;;15.20;100.00;101622.84;5082049;27;45435;-74
2023/08/05 03:19:33;;;;;;;;;11.33;9.00;;;;;15.19;100.00;101628.25;5087163;27;45396;-74
2023/08/05 03:21:58;;;;;;;;;11.67;10.67;;;;;15.19;100.00;101626.44;5091605;27;45465;-74
2023/08/05 03:24:23;;;;;;;;;8.00;8.00;;;;;15.17;100.00;101631.00;5097927;27;45461;-74
2023/08/05 03:26:48;;;;;;;;;8.33;7.33;;;;;15.15;100.00;101621.38;5083571;27;45348;-74
2023/08/05 03:29:14;;;;;;;;;8.67;8.67;;;;;15.10;100.00;101613.63;5100833;27;45379;-74
2023/08/05 03:31:39;;;;;;;;;8.00;8.00;;;;;15.13;100.00;101616.97;5082686;27;45387;-74
2023/08/05 03:34:05;;;;;;;;;10.67;9.00;;;;;15.15;100.00;101627.53;5062505;27;54371;-74
2023/08/05 03:36:30;;;;;;;;;7.33;6.67;;;;;15.18;100.00;101627.41;5080581;27;45560;-74
2023/08/05 03:38:56;;;;;;;;;7.00;7.00;;;;;15.18;100.00;101622.06;5081787;27;50222;-74
2023/08/05 03:41:22;;;;;;;;;6.00;6.00;;;;;15.17;100.00;101624.81;5081381;27;46165;-75
2023/08/05 03:43:47;;;;;;;;;4.00;4.00;;;;;15.21;100.00;101632.56;5063427;27;46010;-75
2023/08/05 03:46:12;;;;;;;;;7.33;7.33;;;;;15.09;100.00;101598.56;5081467;27;45724;-75
2023/08/05 03:48:38;;;;;;;;;4.00;4.00;;;;;15.24;100.00;101624.41;5081003;28;45472;-74
2023/08/05 03:51:03;;;;;;;;;5.00;5.00;;;;;15.22;100.00;101612.09;5088907;27;45500;-75
2023/08/05 03:53:28;;;;;;;;;8.00;6.00;;;;;15.22;100.00;101596.09;5082293;27;45374;-74
2023/08/05 03:55:54;;;;;;;;;5.33;3.33;;;;;15.17;100.00;101569.72;5071977;28;45579;-75
2023/08/05 03:58:19;;;;;;;;;6.00;6.00;;;;;15.32;100.00;101582.19;5093724;27;45457;-74
2023/08/05 04:00:45;;;;;;;;;4.00;4.00;;;;;15.32;100.00;101568.00;5084571;27;46123;-74
2023/08/05 04:03:10;;;;;;;;;4.00;3.00;;;;;15.37;100.00;101558.84;5084934;27;45296;-74
2023/08/05 04:05:36;;;;;;;;;8.00;5.33;;;;;15.36;100.00;101542.91;5097040;27;45450;-74
2023/08/05 04:08:01;;;;;;;;;5.67;5.33;;;;;15.40;100.00;101542.66;5090628;27;45380;-72
2023/08/05 04:10:26;;;;;;;;;5.00;5.00;;;;;15.36;100.00;101535.78;5078381;28;45573;-74
2023/08/05 04:12:52;;;;;;;;;4.67;4.67;;;;;15.34;100.00;101510.16;5078113;28;45334;-75
2023/08/05 04:15:19;;;;;;;;;8.00;4.67;;;;;15.41;100.00;101509.72;5078475;28;45444;-75
2023/08/05 04:17:45;;;;;;;;;3.00;3.00;;;;;15.41;100.00;101516.88;5081138;27;45438;-74
2023/08/05 04:20:14;;;;;;;;;5.00;5.00;;;;;15.38;100.00;101511.72;5093971;27;45550;-74
2023/08/05 04:22:39;;;;;;;;;4.33;3.00;;;;;15.46;100.00;101525.47;5090131;27;45317;-75
2023/08/05 04:25:05;;;;;;;;;1.00;1.00;;;;;15.39;100.00;101524.94;5079078;27;45304;-75
2023/08/05 04:27:31;;;;;;;;;8.00;5.00;;;;;15.42;100.00;101532.78;5088744;27;45443;-75
2023/08/05 04:29:58;;;;;;;;;5.00;3.33;;;;;15.36;100.00;101534.91;5080385;27;45509;-75
2023/08/05 04:32:23;;;;;;;;;4.67;4.67;;;;;15.45;100.00;101545.06;5096072;27;45280;-75
2023/08/05 04:34:48;;;;;;;;;7.00;6.00;;;;;15.44;100.00;101548.69;5095750;27;45416;-75
2023/08/05 04:37:17;;;;;;;;;4.00;4.00;;;;;15.50;100.00;101551.06;5088251;27;45751;-75
2023/08/05 04:39:43;;;;;;;;;5.00;5.00;;;;;15.40;100.00;101542.66;5070685;27;46488;-75
2023/08/05 04:42:08;;;;;;;;;7.00;5.67;;;;;15.36;100.00;101527.78;5074167;27;45417;-75
2023/08/05 04:44:33;;;;;;;;;3.00;3.00;;;;;15.52;100.00;101551.81;5081973;27;45495;-75
2023/08/05 04:46:59;;;;;;;;;7.00;6.00;;;;;15.54;100.00;101553.44;5098275;27;46284;-75
2023/08/05 04:49:24;;;;;;;;;6.00;5.00;;;;;15.49;100.00;101536.00;5081304;27;45533;-75
2023/08/05 04:51:49;;;;;;;;;3.33;3.33;;;;;15.52;100.00;101547.34;5092172;27;51547;-74
2023/08/05 04:54:14;;;;;;;;;5.67;5.67;;;;;15.53;100.00;101542.88;5097505;27;49809;-75
2023/08/05 04:56:40;;;;;;;;;6.00;6.00;;;;;15.57;100.00;101545.25;5080756;27;45552;-75
2023/08/05 04:59:05;;;;;;;;;7.00;4.33;;;;;15.58;100.00;101527.47;5098637;27;45551;-75
2023/08/05 05:01:32;;;;;;;;;4.33;4.33;;;;;15.58;100.00;101523.00;5098198;27;53911;-74
2023/08/05 05:03:57;;;;;;;;;4.67;4.00;;;;;15.64;100.00;101522.66;5096834;27;45364;-75
2023/08/05 05:06:23;;;;;;;;;5.00;3.00;;;;;15.67;100.00;101528.78;5098203;27;45256;-75
2023/08/05 05:08:49;;;;;;;;;3.33;3.33;;;;;15.66;100.00;101513.72;5095108;27;46118;-74
2023/08/05 05:11:14;;;;;;;;;4.33;4.33;;;;;15.67;100.00;101502.97;5097171;27;45426;-74
2023/08/05 05:13:40;;;;;;;;;5.00;5.00;;;;;15.65;100.00;101502.19;5096989;27;45342;-74
2023/08/05 05:16:05;;;;;;;;;4.00;3.00;;;;;15.71;100.00;101501.81;5095983;27;45474;-74
2023/08/05 05:18:30;;;;;;;;;2.33;2.33;;;;;15.71;100.00;101503.63;5098082;27;45487;-74
2023/08/05 05:20:56;;;;;;;;;5.67;3.00;;;;;15.72;100.00;101505.34;5079161;27;46224;-74
2023/08/05 05:23:21;;;;;;;;;3.33;3.33;;;;;15.71;100.00;101492.97;5082814;27;45504;-74
2023/08/05 05:25:46;;;;;;;;;5.67;4.00;;;;;15.67;100.00;101489.63;5095409;27;45423;-74
2023/08/05 05:28:12;;;;;;;;;4.00;3.67;;;;;15.70;100.00;101489.47;5096609;27;45239;-74
2023/08/05 05:30:37;;;;;;;;;4.33;4.33;;;;;15.75;100.00;101474.03;5097010;27;47743;-74
2023/08/05 05:33:03;;;;;;;;;4.33;3.67;;;;;15.85;100.00;101482.34;5078527;27;45350;-74
2023/08/05 05:35:28;;;;;;;;;3.67;3.67;;;;;15.81;100.00;101462.13;5100784;27;45407;-74
2023/08/05 05:37:54;;;;;;;;;5.00;4.00;;;;;15.97;100.00;101468.28;5096820;27;46430;-74
2023/08/05 05:40:19;;;;;;;;;8.00;6.00;;;;;16.05;100.00;101471.38;5098443;27;45488;-74
2023/08/05 05:42:45;;;;;;;;;2.00;2.00;;;;;16.07;100.00;101464.13;5090832;27;45745;-74
2023/08/05 05:45:10;;;;;;;;;2.67;2.67;;;;;16.10;100.00;101453.28;5089166;27;45531;-74
2023/08/05 05:47:35;;;;;;;;;4.00;4.00;;;;;16.15;100.00;101454.75;5081278;27;46131;-74
2023/08/05 05:50:01;;;;;;;;;3.33;3.00;;;;;16.15;100.00;101454.75;5088985;27;45494;-74
2023/08/05 05:52:26;;;;;;;;;4.00;3.00;;;;;16.23;100.00;101450.75;5092570;27;45363;-74
2023/08/05 05:54:51;;;;;;;;;7.33;4.33;;;;;16.34;100.00;101454.47;5088675;27;45280;-74
2023/08/05 05:57:17;;;;;;;;;5.00;5.00;;;;;16.37;100.00;101440.94;5080139;27;45350;-74
2023/08/05 05:59:43;;;;;;;;;4.00;3.00;;;;;16.38;100.00;101429.31;5091930;27;45268;-75
2023/08/05 06:02:09;;;;;;;;;5.33;3.67;;;;;16.58;100.00;101454.84;5071556;27;45414;-75
2023/08/05 06:04:35;;;;;;;;;3.00;3.00;;;;;16.74;100.00;101441.38;5085883;27;45367;-75
2023/08/05 06:07:02;;;;;;;;;4.67;3.67;;;;;16.84;100.00;101437.19;5069270;28;47711;-75
2023/08/05 06:09:28;;;;;;;;;5.00;5.00;;;;;16.88;100.00;101425.34;5097620;27;45450;-75
2023/08/05 06:11:53;;;;;;;;;3.00;3.00;;;;;16.94;98.38;101424.97;5091194;27;45388;-75
2023/08/05 06:14:20;;;;;;;;;3.33;2.33;;;;;16.93;100.00;101413.41;5088914;27;45276;-74
2023/08/05 06:16:45;;;;;;;;;3.00;3.00;;;;;17.03;100.00;101427.91;5094952;27;45460;-75
2023/08/05 06:19:11;;;;;;;;;2.00;2.00;;;;;17.00;100.00;101412.06;5084477;27;45427;-75
2023/08/05 06:21:36;;;;;;;;;3.33;3.00;;;;;17.08;100.00;101430.28;5078567;27;45588;-75
2023/08/05 06:24:01;;;;;;;;;2.00;2.00;;;;;17.07;100.00;101418.72;5091624;27;45502;-75
2023/08/05 06:26:28;;;;;;;;;5.00;5.00;;;;;17.21;99.59;101427.69;5088285;27;45908;-75
2023/08/05 06:28:53;;;;;;;;;3.00;3.00;;;;;17.27;96.89;101427.28;5088464;27;45411;-75
2023/08/05 06:31:19;;;;;;;;;5.00;4.00;;;;;17.28;94.19;101420.94;5084784;27;45505;-75
2023/08/05 06:33:44;;;;;;;;;4.00;4.00;;;;;17.29;100.00;101415.53;5095870;27;45428;-75
2023/08/05 06:36:09;;;;;;;;;2.00;2.00;;;;;17.43;97.43;101422.63;5078521;27;49489;-74
2023/08/05 06:38:35;;;;;;;;;4.67;3.00;;;;;17.48;92.95;101405.31;5094237;27;45485;-74
2023/08/05 06:41:01;;;;;;;;;6.00;4.00;;;;;17.56;93.12;101412.88;5094353;27;45493;-74
2023/08/05 06:43:26;;;;;;;;;5.00;2.00;;;;;17.65;90.39;101406.91;5097287;27;45425;-75
2023/08/05 06:45:52;;;;;;;;;5.00;4.33;;;;;17.68;91.44;101401.34;5088082;27;53958;-74
2023/08/05 06:48:17;;;;;;;;;3.67;3.67;;;;;17.76;90.77;101404.38;5096362;27;45311;-75
2023/08/05 06:50:42;;;;;;;;;3.33;3.33;;;;;17.62;92.13;101396.41;5086681;27;45617;-75
2023/08/05 06:53:08;;;;;;;;;2.67;2.00;;;;;17.67;90.77;101395.13;5092903;27;45465;-75
2023/08/05 06:55:33;;;;;;;;;1.00;1.00;;;;;17.58;87.29;101378.84;5083798;27;46174;-74
2023/08/05 06:57:58;;;;;;;;;3.67;3.33;;;;;17.49;88.54;101382.97;5081119;27;45397;-74
2023/08/05 07:00:24;;;;;;;;;5.00;2.00;;;;;17.49;91.87;101382.97;5082950;27;45568;-75
2023/08/05 07:02:49;;;;;;;;;4.00;3.00;;;;;17.60;89.43;101404.53;5070249;27;45474;-74
2023/08/05 07:05:14;;;;;;;;;3.67;2.67;;;;;17.49;90.60;101379.44;5098991;27;48009;-75
2023/08/05 07:07:40;;;;;;;;;2.00;2.00;;;;;17.52;93.12;101368.53;5086852;27;45442;-74
2023/08/05 07:10:08;;;;;;;;;2.00;2.00;;;;;17.74;94.98;101381.34;5089557;27;45340;-74
2023/08/05 07:12:36;;;;;;;;;3.67;2.67;;;;;17.90;94.68;101388.22;5097015;27;45316;-74
2023/08/05 07:15:02;;;;;;;;;2.00;2.00;;;;;17.91;86.42;101376.56;5077755;27;47659;-74
2023/08/05 07:17:28;;;;;;;;;2.00;2.00;;;;;18.02;89.43;101382.06;5088428;27;45267;-74
2023/08/05 07:19:53;;;;;;;;;2.67;2.67;;;;;18.09;90.32;101375.31;5087063;27;45378;-74
2023/08/05 07:22:18;;;;;;;;;2.00;2.00;;;;;18.19;88.77;101389.75;5089013;27;45758;-74
2023/08/05 07:24:44;;;;;;;;;1.67;1.00;;;;;18.19;86.33;101379.03;5082995;27;57383;-73
2023/08/05 07:27:09;;;;;;;;;3.00;2.00;;;;;18.22;81.71;101383.34;5100857;27;45614;-74
2023/08/05 07:29:35;;;;;;;;;5.00;4.00;;;;;18.16;82.81;101387.28;5087293;27;45364;-74
2023/08/05 07:32:01;;;;;;;;;2.00;2.00;;;;;18.16;86.69;101365.00;5100578;27;45530;-74
2023/08/05 07:34:31;;;;;;;;;1.00;1.00;;;;;18.20;87.57;101358.47;5099025;27;48539;-74
2023/08/05 07:36:57;;;;;;;;;2.00;2.00;;;;;18.29;85.73;101370.41;5093097;27;45354;-74
2023/08/05 07:39:23;;;;;;;;;2.67;2.33;;;;;18.35;84.68;101378.00;5091482;27;45216;-74
2023/08/05 07:41:49;;;;;;;;;3.00;2.00;;;;;18.36;85.85;101379.69;5087238;27;45437;-74
2023/08/05 07:44:14;;;;;;;;;1.00;1.00;;;;;18.52;86.64;101385.72;5081689;27;46802;-74
2023/08/05 07:46:41;;;;;;;;;3.00;3.00;;;;;18.57;82.22;101368.34;5084172;27;45218;-74
2023/08/05 07:49:07;;;;;;;;;2.00;1.00;;;;;18.67;83.62;101366.75;5093179;27;45376;-73
2023/08/05 07:51:32;;;;;;;;;2.00;2.00;;;;;18.84;85.50;101376.25;5083035;27;45459;-74
2023/08/05 07:53:58;;;;;;;;;1.00;1.00;;;;;18.90;85.32;101372.25;5093880;27;46369;-74
2023/08/05 07:56:23;;;;;;;;;3.33;1.33;;;;;18.89;86.06;101352.63;5063562;27;45559;-74
2023/08/05 07:58:49;;;;;;;;;1.00;1.00;;;;;18.97;79.66;101360.97;5086871;27;45430;-75
2023/08/05 08:01:19;;;;;;;;;1.67;1.67;;;;;18.91;80.60;101334.63;5091535;27;45445;-75
2023/08/05 08:03:53;;;;;;;;;1.00;1.00;;;;;18.88;82.68;101329.47;5072148;27;45474;-75
2023/08/05 08:06:19;;;;;;;;;2.00;1.67;;;;;18.91;83.38;101331.94;5086387;27;45339;-75
2023/08/05 08:08:45;;;;;;;;;2.33;1.33;;;;;18.97;82.12;101328.81;5093326;27;45383;-75
2023/08/05 08:11:11;;;;;;;;;1.33;1.33;;;;;18.90;79.88;101342.75;5074557;27;45333;-74
2023/08/05 08:13:37;;;;;;;;;1.67;0.67;;;;;18.95;80.35;101338.75;5082293;27;46719;-74
2023/08/05 08:16:02;;;;;;;;;2.00;1.33;;;;;18.95;81.99;101341.44;5096553;27;45573;-74
2023/08/05 08:18:28;;;;;;;;;2.00;1.00;;;;;18.90;79.02;101332.03;5096020;27;45410;-74
2023/08/05 08:20:53;;;;;;;;;0.67;0.67;;;;;18.90;81.28;101340.09;5079246;27;45438;-73
2023/08/05 08:23:19;;;;;;;;;1.33;1.33;;;;;18.85;81.15;101332.38;5097526;27;48124;-74
2023/08/05 08:25:45;;;;;;;;;1.67;1.67;;;;;18.84;79.23;101332.50;5099266;27;45322;-74
2023/08/05 08:28:10;;;;;;;;;1.33;0.67;;;;;18.84;83.79;101328.00;5082042;27;45480;-74
2023/08/05 08:30:35;;;;;;;;;1.67;1.33;;;;;18.83;85.67;101328.94;5098170;27;45801;-75
2023/08/05 08:33:01;;;;;;;;;2.33;1.67;;;;;18.85;89.60;101310.94;5089890;27;45536;-75
2023/08/05 08:35:26;;;;;;;;;2.00;2.00;;;;;18.84;90.09;101306.56;5079132;27;47982;-74
2023/08/05 08:37:51;;;;;;;;;2.00;2.00;;;;;18.76;92.93;101308.06;5091093;27;45440;-74
2023/08/05 08:40:18;;;;;;;;;2.33;0.67;;;;;18.77;84.28;101324.03;5087437;27;45356;-74
2023/08/05 08:42:44;;;;;;;;;1.00;1.00;;;;;18.39;85.90;101291.13;5079363;27;47162;-74
2023/08/05 08:45:11;;;;;;;;;2.67;1.00;;;;;18.67;86.43;101323.88;5079840;27;45382;-74
2023/08/05 08:47:37;;;;;;;;;2.33;1.00;;;;;18.65;83.50;101312.38;5078044;27;45288;-75
2023/08/05 08:50:03;;;;;;;;;3.00;1.67;;;;;18.67;83.18;101305.09;5091032;27;45518;-74
2023/08/05 08:52:30;;;;;;;;;1.33;1.00;;;;;18.64;84.17;101304.47;5102264;27;45536;-75
2023/08/05 08:54:55;;;;;;;;;1.33;1.33;;;;;18.66;88.77;101298.03;5094936;27;45417;-74
2023/08/05 08:57:22;;;;;;;;;0.33;0.33;;;;;18.75;84.86;101299.16;5090446;27;45399;-74
2023/08/05 08:59:47;;;;;;;;;1.00;1.00;;;;;18.70;81.06;101294.16;5094048;27;45295;-74
2023/08/05 09:02:23;;;;;;;;;1.00;1.00;;;;;18.63;82.21;101284.00;5066009;27;46474;-74
2023/08/05 09:04:51;;;;;;;;;1.67;1.67;;;;;18.71;87.26;101286.97;5098368;27;45365;-74
2023/08/05 09:07:16;;;;;;;;;3.00;2.00;;;;;18.70;90.69;101253.97;5087960;27;45249;-75
2023/08/05 09:09:46;;;;;;;;;2.00;2.00;;;;;18.87;86.84;101266.13;5096269;27;45733;-74
2023/08/05 09:12:12;;;;;;;;;1.33;1.33;;;;;19.05;88.10;101272.78;5096346;27;45399;-74
2023/08/05 09:14:37;;;;;;;;;1.33;1.33;;;;;19.12;85.74;101275.84;5081267;27;45312;-74
2023/08/05 09:17:02;;;;;;;;;2.00;2.00;;;;;19.15;83.07;101272.94;5098024;27;45796;-74
2023/08/05 09:19:29;;;;;;;;;0.67;0.67;;;;;19.16;85.24;101271.97;5084566;27;45254;-74
2023/08/05 09:21:55;;;;;;;;;2.33;1.67;;;;;19.24;84.08;101265.06;5066968;28;48582;-74
2023/08/05 09:24:22;;;;;;;;;2.33;1.33;;;;;19.30;83.32;101257.53;5066195;27;45270;-74
2023/08/05 09:26:54;;;;;;;;;3.00;1.00;;;;;19.31;84.38;101253.84;5078494;27;45419;-74
2023/08/05 09:29:21;;;;;;;;;2.33;2.00;;;;;19.29;83.34;101237.91;5079279;27;45510;-74
2023/08/05 09:32:04;;;;;;;;;1.67;1.67;;;;;19.29;82.30;101237.91;5086844;27;45417;-74
2023/08/05 09:34:37;;;;;;;;;3.00;3.00;;;;;19.32;88.87;101228.75;5080116;27;45367;-74
2023/08/05 09:37:03;;;;;;;;;4.00;2.67;;;;;19.31;88.31;101222.53;5075115;27;45375;-75
2023/08/05 09:39:45;;;;;;;;;2.67;1.67;;;;;19.22;86.62;101229.47;5088479;27;45218;-74
2023/08/05 09:42:27;;;;;;;;;1.00;1.00;;;;;19.06;84.42;101223.56;5087204;27;45504;-74
2023/08/05 09:44:54;;;;;;;;;1.67;1.67;;;;;18.93;89.65;101230.81;5084330;27;45425;-75
2023/08/05 09:47:23;;;;;;;;;3.67;1.67;;;;;18.83;90.83;101226.25;5072424;27;45382;-75
2023/08/05 09:49:50;;;;;;;;;3.00;3.00;;;;;18.57;89.85;101206.75;5064558;27;45541;-75
2023/08/05 09:52:17;;;;;;;;;2.00;2.00;;;;;18.44;91.88;101197.88;5071930;27;45315;-75
2023/08/05 09:54:48;;;;;;;;;1.67;1.67;;;;;18.48;95.96;101210.09;5087881;27;45316;-75
2023/08/05 09:57:14;;;;;;;;;2.67;1.67;;;;;18.47;90.94;101209.22;5088460;27;45422;-75
2023/08/05 09:59:41;;;;;;;;;3.67;1.67;;;;;18.48;99.87;101191.34;5061939;28;45291;-75
2023/08/05 10:02:11;;;;;;;;;2.00;2.00;;;;;18.35;97.26;101161.94;5075670;27;46116;-74
2023/08/05 10:04:39;;;;;;;;;1.33;1.00;;;;;18.43;96.36;101167.56;5090985;27;45360;-75
2023/08/05 10:07:04;;;;;;;;;2.67;2.00;;;;;18.28;96.52;101155.31;5087475;27;45318;-74
2023/08/05 10:09:29;;;;;;;;;2.00;2.00;;;;;18.41;100.00;101174.00;5088489;27;45215;-75
2023/08/05 10:11:55;;;;;;;;;3.00;2.00;;;;;18.49;100.00;101163.56;5081060;27;55827;-74
2023/08/05 10:14:21;;;;;;;;;2.00;1.33;;;;;18.66;98.36;101182.81;5087106;27;45427;-74
2023/08/05 10:16:49;;;;;;;;;3.00;2.00;;;;;18.79;98.35;101190.78;5096790;27;45556;-75
2023/08/05 10:19:26;;;;;;;;;2.33;2.33;;;;;18.96;99.30;101178.78;5088009;27;45465;-75
2023/08/05 10:21:52;;;;;;;;;2.33;2.33;;;;;19.13;98.35;101179.22;5067966;27;47064;-75
2023/08/05 10:24:17;;;;;;;;;3.67;1.67;;;;;18.92;99.08;101140.63;5080393;27;45302;-74
2023/08/05 10:26:45;;;;;;;;;2.33;2.33;;;;;19.27;89.21;101188.03;5098181;27;45284;-75
2023/08/05 10:29:29;;;;;;;;;3.00;1.00;;;;;19.25;93.69;101175.59;5089144;27;45313;-76
2023/08/05 10:32:09;;;;;;;;;6.00;2.00;;;;;19.35;92.81;101159.63;5082101;27;46248;-75
2023/08/05 10:34:34;;;;;;;;;4.33;2.67;;;;;19.40;99.44;101144.09;5087430;27;45363;-75
2023/08/05 10:37:00;;;;;;;;;2.67;1.67;;;;;19.40;96.97;101136.03;5075920;27;45441;-74
2023/08/05 10:39:40;;;;;;;;;2.00;2.00;;;;;19.54;94.28;101146.50;5087430;27;45626;-75
2023/08/05 10:42:27;;;;;;;;;4.33;3.00;;;;;19.56;94.59;101111.53;5085634;27;45416;-75
2023/08/05 10:44:58;;;;;;;;;0.00;0.00;;;;;19.87;94.35;101118.81;5083114;27;45375;-75
2023/08/05 10:47:24;;;;;;;;;2.67;2.67;;;;;20.04;93.07;101117.44;5088175;27;45385;-74
2023/08/05 10:50:00;;;;;;;;;3.67;3.67;;;;;20.16;91.38;101101.16;5085939;27;45474;-75
2023/08/05 10:52:25;;;;;;;;;1.67;1.67;;;;;20.22;87.27;101099.84;5078944;27;46153;-75
2023/08/05 10:54:52;;;;;;;;;5.00;3.33;;;;;20.22;88.77;101083.72;5082780;27;45461;-75
2023/08/05 10:57:32;;;;;;;;;3.00;3.00;;;;;20.35;88.54;101086.25;5077908;27;45716;-75
2023/08/05 11:00:02;;;;;;;;;2.67;2.33;;;;;20.48;87.78;101076.19;5073816;28;45608;-74
2023/08/05 11:02:28;;;;;;;;;3.00;3.00;;;;;20.57;86.40;101065.53;5080431;27;45431;-75
2023/08/05 11:05:08;;;;;;;;;3.67;2.33;;;;;20.72;85.44;101060.66;5090121;27;46215;-75
2023/08/05 11:07:36;;;;;;;;;2.00;2.00;;;;;20.68;82.63;101040.44;5091638;27;45419;-75
2023/08/05 11:10:03;;;;;;;;;4.67;3.00;;;;;20.81;84.34;101034.84;5086689;27;45978;-75
2023/08/05 11:12:29;;;;;;;;;3.00;3.00;;;;;20.78;81.08;101034.09;5085020;27;45505;-75
2023/08/05 11:14:56;;;;;;;;;2.00;2.00;;;;;20.73;82.79;101011.31;5090398;27;45354;-75
2023/08/05 11:17:21;;;;;;;;;3.00;1.00;;;;;20.72;84.60;101018.50;5077867;27;46208;-75